Time;durP1;ratioP1;P1;durP2;ratioP2;P2;SDS_P1;SDS_P2;PMS_P1;PMS_P2;Temp;Humidity;BMP_temperature;BMP_pressure;BME280_temperature;BME280_humidity;BME280_pressure;Samples;Min_cycle;Max_cycle;Signal;HPM_P1;HPM_P2
2021/06/19 00:00:51;;;;;;;2.28;0.57;;;15.40;77.70;;;;;;5092451;28;20085;-54
2021/06/19 00:03:19;;;;;;;2.00;0.60;;;15.40;77.70;;;;;;5092253;28;20016;-54
2021/06/19 00:05:46;;;;;;;0.45;0.43;;;15.40;77.70;;;;;;5090880;28;20110;-52
2021/06/19 00:08:13;;;;;;;2.35;1.02;;;15.40;77.50;;;;;;5091840;28;20024;-53
2021/06/19 00:10:42;;;;;;;1.55;0.88;;;15.40;77.70;;;;;;5091940;28;20030;-52
2021/06/19 00:13:10;;;;;;;3.05;0.63;;;15.50;77.50;;;;;;5091936;28;20025;-51
2021/06/19 00:15:38;;;;;;;3.58;0.80;;;15.50;77.60;;;;;;5092283;28;20169;-49
2021/06/19 00:18:05;;;;;;;1.20;0.63;;;15.50;77.70;;;;;;5090491;28;20058;-48
2021/06/19 00:20:32;;;;;;;6.82;1.92;;;15.50;77.60;;;;;;5092000;28;20088;-48
2021/06/19 00:23:00;;;;;;;2.55;0.80;;;15.50;77.40;;;;;;5091514;28;20463;-50
2021/06/19 00:25:29;;;;;;;4.60;0.93;;;15.50;77.60;;;;;;5091651;28;20465;-49
2021/06/19 00:27:57;;;;;;;1.20;0.70;;;15.50;77.60;;;;;;5092053;28;20031;-51
2021/06/19 00:30:28;;;;;;;1.85;0.70;;;15.50;77.60;;;;;;5091869;28;20036;-52
2021/06/19 00:32:55;;;;;;;5.53;1.27;;;15.50;77.70;;;;;;5091916;28;20060;-54
2021/06/19 00:35:23;;;;;;;1.20;0.65;;;15.50;77.60;;;;;;5091533;28;20028;-52
2021/06/19 00:37:51;;;;;;;2.00;0.80;;;15.50;77.80;;;;;;5091552;28;20486;-53
2021/06/19 00:40:21;;;;;;;1.30;0.68;;;15.50;77.70;;;;;;5092026;28;20056;-55
2021/06/19 00:43:00;;;;;;;1.80;0.80;;;15.50;77.60;;;;;;5092282;28;20035;-56
2021/06/19 00:45:29;;;;;;;1.58;0.50;;;15.50;77.80;;;;;;5092174;28;20024;-53
2021/06/19 00:47:56;;;;;;;3.20;0.93;;;15.50;77.60;;;;;;5091714;28;20028;-49
2021/06/19 00:50:26;;;;;;;1.60;0.63;;;15.50;77.60;;;;;;5090180;28;20173;-48
2021/06/19 00:52:53;;;;;;;2.05;0.60;;;15.50;77.70;;;;;;5091451;28;20020;-49
2021/06/19 00:55:21;;;;;;;3.72;0.93;;;15.50;77.80;;;;;;5091570;28;20032;-56
2021/06/19 00:57:50;;;;;;;1.90;0.73;;;15.50;77.90;;;;;;5091119;28;20024;-52
2021/06/19 01:00:18;;;;;;;2.58;0.95;;;15.50;77.90;;;;;;5095300;28;20032;-51
2021/06/19 01:02:45;;;;;;;2.50;0.60;;;15.50;77.90;;;;;;5094238;28;20055;-49
2021/06/19 01:05:14;;;;;;;2.95;0.63;;;15.50;78.00;;;;;;5093382;28;20032;-56
2021/06/19 01:07:41;;;;;;;2.53;1.50;;;15.50;77.90;;;;;;5095481;28;20063;-55
2021/06/19 01:10:10;;;;;;;2.72;0.82;;;15.50;78.00;;;;;;5095085;28;20101;-51
2021/06/19 01:12:40;;;;;;;3.53;0.60;;;15.60;78.10;;;;;;5095745;28;20129;-49
2021/06/19 01:15:08;;;;;;;1.55;0.77;;;15.50;78.00;;;;;;5094672;28;20056;-50
2021/06/19 01:17:36;;;;;;;3.22;0.80;;;15.60;78.20;;;;;;5095408;28;20047;-54
2021/06/19 01:20:09;;;;;;;1.90;0.85;;;15.60;78.60;;;;;;5094962;28;20031;-50
2021/06/19 01:22:39;;;;;;;1.45;0.70;;;15.60;78.00;;;;;;5093728;28;20119;-51
2021/06/19 01:25:10;;;;;;;1.40;0.68;;;15.60;78.00;;;;;;5094555;28;20039;-51
2021/06/19 01:27:38;;;;;;;2.85;0.82;;;15.60;78.10;;;;;;5094571;28;20052;-49
2021/06/19 01:30:08;;;;;;;1.60;0.80;;;15.60;78.00;;;;;;5094383;28;20036;-55
2021/06/19 01:32:40;;;;;;;3.50;1.33;;;15.60;77.90;;;;;;5094881;28;20020;-50
2021/06/19 01:35:09;;;;;;;3.63;0.60;;;15.70;78.00;;;;;;5094712;28;20131;-54
2021/06/19 01:37:37;;;;;;;1.45;0.57;;;15.70;78.00;;;;;;5094312;28;20034;-56
2021/06/19 01:40:15;;;;;;;2.03;0.77;;;15.70;77.90;;;;;;5094991;28;20024;-52
2021/06/19 01:42:45;;;;;;;2.08;0.47;;;15.70;77.90;;;;;;5094282;28;20020;-55
2021/06/19 01:45:18;;;;;;;2.75;0.77;;;15.70;77.80;;;;;;5094186;28;20440;-55
2021/06/19 01:47:46;;;;;;;1.55;0.65;;;15.70;78.00;;;;;;5094085;28;20167;-51
2021/06/19 01:50:22;;;;;;;1.50;0.70;;;15.70;78.60;;;;;;5092933;28;20043;-51
2021/06/19 01:52:51;;;;;;;3.42;0.63;;;15.70;77.90;;;;;;5093837;28;20101;-51
2021/06/19 01:55:19;;;;;;;2.55;0.68;;;15.70;78.10;;;;;;5094572;28;20024;-51
2021/06/19 01:57:49;;;;;;;2.25;0.80;;;15.80;78.00;;;;;;5094120;28;20089;-51
2021/06/19 02:00:20;;;;;;;1.33;0.70;;;15.70;78.10;;;;;;5094435;28;20270;-51
2021/06/19 02:02:47;;;;;;;1.73;0.77;;;15.70;78.20;;;;;;5094483;28;20031;-53
2021/06/19 02:05:16;;;;;;;1.63;0.50;;;15.70;78.30;;;;;;5094780;28;20424;-52
2021/06/19 02:07:59;;;;;;;3.65;0.98;;;15.70;78.30;;;;;;5094872;28;20374;-53
2021/06/19 02:10:29;;;;;;;1.83;0.85;;;15.70;78.40;;;;;;5094070;28;20471;-53
2021/06/19 02:12:57;;;;;;;2.72;0.90;;;15.70;78.40;;;;;;5093925;28;20024;-49
2021/06/19 02:15:25;;;;;;;2.10;0.65;;;15.70;78.60;;;;;;5094643;28;20098;-53
2021/06/19 02:17:56;;;;;;;2.20;0.80;;;15.80;78.60;;;;;;5094313;28;20028;-52
2021/06/19 02:20:25;;;;;;;2.10;0.52;;;15.80;78.50;;;;;;5094333;28;20052;-52
2021/06/19 02:22:53;;;;;;;2.63;0.95;;;15.70;78.60;;;;;;5085913;28;20037;-58
2021/06/19 02:25:26;;;;;;;1.90;0.80;;;15.70;79.10;;;;;;5092506;28;20027;-59
2021/06/19 02:27:57;;;;;;;1.58;0.70;;;15.80;79.00;;;;;;5092470;28;20497;-50
2021/06/19 02:30:29;;;;;;;1.92;0.82;;;15.80;78.70;;;;;;5090653;28;20036;-51
2021/06/19 02:32:57;;;;;;;2.83;1.05;;;15.80;78.70;;;;;;5091921;28;20461;-55
2021/06/19 02:35:29;;;;;;;3.83;1.00;;;15.70;78.60;;;;;;5092010;28;20027;-54
2021/06/19 02:37:57;;;;;;;1.92;0.80;;;15.80;78.90;;;;;;5092396;28;20026;-53
2021/06/19 02:40:25;;;;;;;2.25;0.68;;;15.80;78.70;;;;;;5089172;28;20020;-50
2021/06/19 02:42:53;;;;;;;2.22;0.73;;;15.80;78.60;;;;;;5089725;28;20024;-46
2021/06/19 02:45:21;;;;;;;2.47;0.73;;;15.80;78.70;;;;;;5090873;28;20035;-53
2021/06/19 02:47:55;;;;;;;2.22;0.80;;;15.80;79.00;;;;;;5092179;28;20036;-50
2021/06/19 02:50:34;;;;;;;3.35;0.85;;;15.80;79.00;;;;;;5088117;28;20466;-51
2021/06/19 02:53:04;;;;;;;2.28;0.88;;;15.80;79.00;;;;;;5091087;28;20027;-52
2021/06/19 02:55:34;;;;;;;2.15;0.73;;;15.80;79.30;;;;;;5073056;28;20119;-48
2021/06/19 02:58:03;;;;;;;3.67;1.02;;;15.80;79.00;;;;;;5089006;28;20069;-55
2021/06/19 03:00:31;;;;;;;2.38;0.73;;;15.90;79.10;;;;;;5088748;28;20036;-51
2021/06/19 03:03:02;;;;;;;1.23;0.70;;;15.90;79.40;;;;;;5091297;28;20031;-51
2021/06/19 03:05:31;;;;;;;3.30;0.82;;;15.90;79.40;;;;;;5089719;28;20051;-53
2021/06/19 03:07:59;;;;;;;1.92;0.90;;;15.90;79.30;;;;;;5090652;28;20031;-51
2021/06/19 03:10:33;;;;;;;1.23;0.73;;;15.90;79.40;;;;;;5086338;28;20044;-50
2021/06/19 03:13:02;;;;;;;3.42;1.00;;;15.90;79.70;;;;;;5091081;28;20028;-49
2021/06/19 03:15:29;;;;;;;2.72;1.00;;;15.90;79.60;;;;;;5091055;28;20392;-55
2021/06/19 03:18:12;;;;;;;1.80;0.80;;;15.90;79.50;;;;;;5091621;28;20061;-50
2021/06/19 03:20:39;;;;;;;;;;;15.90;79.60;;;;;;5089753;28;20416;-49
2021/06/19 03:23:07;;;;;;;2.58;1.02;;;16.00;79.50;;;;;;5089827;28;19919;-52
2021/06/19 03:25:54;;;;;;;1.35;0.65;;;16.00;79.50;;;;;;5089793;28;20097;-49
2021/06/19 03:28:21;;;;;;;2.15;0.90;;;16.00;79.40;;;;;;5069908;28;20079;-51
2021/06/19 03:30:49;;;;;;;2.25;0.70;;;16.00;79.40;;;;;;5089961;28;20038;-54
2021/06/19 03:33:17;;;;;;;1.90;0.80;;;16.00;79.50;;;;;;5090716;28;20034;-53
2021/06/19 03:35:45;;;;;;;3.10;0.95;;;16.10;79.50;;;;;;5092087;28;20036;-53
2021/06/19 03:38:12;;;;;;;2.60;0.80;;;16.10;79.30;;;;;;5092072;28;20024;-52
2021/06/19 03:40:40;;;;;;;2.42;0.70;;;16.00;79.50;;;;;;5091789;28;20060;-50
2021/06/19 03:43:07;;;;;;;2.00;1.02;;;16.00;79.40;;;;;;5091199;28;20439;-53
2021/06/19 03:45:35;;;;;;;1.88;0.90;;;16.00;79.50;;;;;;5091808;28;20036;-56
2021/06/19 03:48:07;;;;;;;2.80;0.82;;;16.00;79.60;;;;;;5092730;28;20047;-57
2021/06/19 03:50:35;;;;;;;0.98;0.60;;;16.00;79.60;;;;;;5092177;28;20382;-53
2021/06/19 03:53:03;;;;;;;1.83;0.85;;;16.00;79.50;;;;;;5092399;28;20024;-53
2021/06/19 03:55:30;;;;;;;3.13;0.93;;;16.00;79.70;;;;;;5092152;28;20039;-56
2021/06/19 03:58:00;;;;;;;1.60;0.73;;;16.00;79.70;;;;;;5090231;28;20624;-56
2021/06/19 04:00:28;;;;;;;2.00;0.70;;;16.00;80.00;;;;;;5090991;28;20340;-53
2021/06/19 04:02:56;;;;;;;2.35;0.70;;;16.00;79.90;;;;;;5091823;28;20350;-55
2021/06/19 04:05:24;;;;;;;4.03;0.95;;;16.00;80.10;;;;;;5090502;28;20020;-49
2021/06/19 04:07:53;;;;;;;3.25;1.27;;;15.90;80.30;;;;;;5082903;28;20501;-57
2021/06/19 04:10:22;;;;;;;10.32;1.48;;;15.70;85.40;;;;;;5089791;28;20040;-56
2021/06/19 04:12:49;;;;;;;9.93;2.13;;;15.50;86.60;;;;;;5088014;28;20016;-61
2021/06/19 04:15:17;;;;;;;6.95;1.92;;;15.50;87.90;;;;;;5090413;28;20038;-52
2021/06/19 04:17:45;;;;;;;3.72;1.52;;;15.10;89.70;;;;;;5089766;28;20042;-54
2021/06/19 04:20:14;;;;;;;9.02;2.60;;;15.20;91.10;;;;;;5090432;28;20024;-53
2021/06/19 04:22:42;;;;;;;7.07;4.93;;;15.10;90.50;;;;;;5087459;28;20047;-55
2021/06/19 04:25:11;;;;;;;5.93;2.50;;;15.30;90.20;;;;;;5087245;28;20587;-57
2021/06/19 04:27:45;;;;;;;8.43;4.65;;;15.30;88.90;;;;;;5090076;28;20046;-54
2021/06/19 04:30:14;;;;;;;10.23;3.35;;;15.30;90.20;;;;;;5090196;28;20344;-51
2021/06/19 04:32:43;;;;;;;12.05;5.18;;;15.40;90.10;;;;;;5087082;28;20035;-54
2021/06/19 04:35:13;;;;;;;6.78;3.20;;;15.40;88.80;;;;;;5087766;28;20040;-56
2021/06/19 04:37:41;;;;;;;8.75;4.80;;;15.40;90.50;;;;;;5091039;28;20120;-56
2021/06/19 04:42:40;;;;;;;12.73;8.00;;;15.40;89.70;;;;;;5088919;28;20026;-55
2021/06/19 04:45:11;;;;;;;8.07;5.30;;;15.40;89.50;;;;;;5092528;28;20421;-53
2021/06/19 04:47:39;;;;;;;11.68;7.22;;;15.50;90.10;;;;;;5074921;28;20051;-54
2021/06/19 04:50:09;;;;;;;17.45;7.43;;;15.40;90.80;;;;;;5093535;28;20039;-55
2021/06/19 04:52:42;;;;;;;11.00;5.93;;;15.30;90.40;;;;;;5087903;28;20020;-55
2021/06/19 04:55:17;;;;;;;5.95;2.58;;;15.40;90.30;;;;;;5093446;28;20064;-57
2021/06/19 04:57:49;;;;;;;18.40;8.98;;;15.30;90.70;;;;;;5090769;28;20050;-52
2021/06/19 05:00:16;;;;;;;19.30;8.38;;;15.60;91.00;;;;;;5093037;28;20047;-59
2021/06/19 05:02:44;;;;;;;13.77;4.68;;;15.80;90.20;;;;;;5087959;28;20504;-54
2021/06/19 05:05:12;;;;;;;13.20;4.22;;;15.60;90.60;;;;;;5093229;28;20374;-49
2021/06/19 05:07:39;;;;;;;20.20;9.65;;;15.60;90.90;;;;;;5091276;28;20074;-53
2021/06/19 05:10:08;;;;;;;15.30;4.88;;;15.50;91.10;;;;;;5093355;28;20129;-54
2021/06/19 05:12:39;;;;;;;16.90;8.40;;;15.60;90.90;;;;;;5086956;28;20020;-53
2021/06/19 05:15:08;;;;;;;10.77;5.63;;;15.60;91.10;;;;;;5093389;28;20032;-51
2021/06/19 05:17:35;;;;;;;16.52;6.35;;;15.80;90.50;;;;;;5092395;28;20031;-54
2021/06/19 05:20:03;;;;;;;9.23;5.88;;;15.70;91.10;;;;;;5093570;28;20069;-55
2021/06/19 05:22:30;;;;;;;10.40;6.97;;;15.90;90.60;;;;;;5074627;28;20074;-55
2021/06/19 05:24:57;;;;;;;38.35;24.17;;;15.90;91.10;;;;;;5088030;28;20677;-54
2021/06/19 05:27:25;;;;;;;14.07;6.40;;;15.90;91.00;;;;;;5093996;28;20433;-52
2021/06/19 05:29:52;;;;;;;23.17;13.82;;;15.80;90.20;;;;;;5094784;28;20043;-56
2021/06/19 05:32:19;;;;;;;38.67;25.42;;;15.80;90.80;;;;;;5094571;28;20104;-54
2021/06/19 05:34:47;;;;;;;22.35;19.52;;;16.00;90.70;;;;;;5094808;28;20531;-54
2021/06/19 05:37:14;;;;;;;46.90;31.27;;;16.10;90.30;;;;;;5094861;28;20028;-55
2021/06/19 05:39:41;;;;;;;36.40;26.67;;;16.30;90.00;;;;;;5094933;28;20051;-53
2021/06/19 05:42:12;;;;;;;39.15;31.45;;;16.30;90.00;;;;;;5094720;28;20077;-54
2021/06/19 05:44:40;;;;;;;24.52;19.17;;;16.30;90.00;;;;;;5094230;28;20024;-46
2021/06/19 05:47:07;;;;;;;25.35;16.73;;;16.30;90.10;;;;;;5094060;28;20028;-53
2021/06/19 05:49:35;;;;;;;26.08;17.42;;;16.30;90.40;;;;;;5094752;28;20036;-50
2021/06/19 05:52:03;;;;;;;23.58;15.88;;;16.30;90.00;;;;;;5094475;28;20031;-47
2021/06/19 05:54:35;;;;;;;32.83;16.20;;;16.30;89.30;;;;;;5094741;28;20031;-51
2021/06/19 05:57:07;;;;;;;30.40;15.70;;;16.30;89.00;;;;;;5089724;28;20028;-50
2021/06/19 05:59:37;;;;;;;28.73;14.60;;;16.30;88.70;;;;;;5094429;28;20067;-53
2021/06/19 06:02:05;;;;;;;30.08;12.57;;;16.20;89.20;;;;;;5094379;28;20103;-54
2021/06/19 06:04:34;;;;;;;27.38;13.38;;;16.20;87.50;;;;;;5094639;28;20481;-50
2021/06/19 06:07:03;;;;;;;33.08;14.55;;;16.30;88.50;;;;;;5093447;28;20544;-49
2021/06/19 06:09:31;;;;;;;25.70;13.70;;;16.30;87.70;;;;;;5092842;28;20036;-49
2021/06/19 06:11:58;;;;;;;25.02;13.00;;;16.30;87.20;;;;;;5093109;28;20112;-53
2021/06/19 06:14:27;;;;;;;32.50;9.52;;;16.30;86.40;;;;;;5094157;28;20028;-52
2021/06/19 06:16:55;;;;;;;29.95;9.93;;;16.40;85.80;;;;;;5094253;28;20020;-54
2021/06/19 06:19:23;;;;;;;28.50;8.75;;;16.40;86.60;;;;;;5094591;28;20055;-52
2021/06/19 06:21:50;;;;;;;22.63;7.40;;;16.30;86.30;;;;;;5093874;28;20035;-48
2021/06/19 06:24:18;;;;;;;20.45;6.70;;;16.30;86.20;;;;;;5093695;28;20051;-51
2021/06/19 06:26:46;;;;;;;15.90;6.53;;;16.30;85.50;;;;;;5094466;28;20040;-51
2021/06/19 06:29:13;;;;;;;21.15;5.35;;;16.30;85.80;;;;;;5093780;28;20516;-53
2021/06/19 06:31:40;;;;;;;13.60;4.82;;;16.20;85.20;;;;;;5093924;28;20012;-47
2021/06/19 06:34:08;;;;;;;19.77;5.40;;;16.20;85.40;;;;;;5093774;28;20473;-47
2021/06/19 06:36:35;;;;;;;13.07;4.75;;;16.20;85.50;;;;;;5093439;28;20028;-49
2021/06/19 06:39:04;;;;;;;25.45;5.70;;;16.20;85.50;;;;;;5093220;28;20028;-47
2021/06/19 06:41:35;;;;;;;16.98;4.93;;;16.20;85.50;;;;;;5093994;28;20073;-46
2021/06/19 06:44:03;;;;;;;35.92;6.07;;;16.20;84.40;;;;;;5093385;28;20074;-52
2021/06/19 06:46:30;;;;;;;24.10;4.95;;;16.20;85.10;;;;;;5093007;28;20110;-51
2021/06/19 06:48:57;;;;;;;15.82;4.70;;;16.30;85.20;;;;;;5091962;28;20111;-48
2021/06/19 06:51:25;;;;;;;49.72;7.70;;;16.30;85.40;;;;;;5093850;28;20484;-49
2021/06/19 06:53:52;;;;;;;28.95;6.03;;;16.30;86.10;;;;;;5092384;28;20374;-51
2021/06/19 06:56:20;;;;;;;32.72;5.47;;;16.40;85.50;;;;;;5091963;28;20039;-46
2021/06/19 06:58:47;;;;;;;27.80;4.55;;;16.40;84.60;;;;;;5092532;28;20105;-47
2021/06/19 07:01:16;;;;;;;23.95;4.43;;;16.40;85.00;;;;;;5090997;28;20028;-50
2021/06/19 07:03:43;;;;;;;22.70;4.43;;;16.40;85.20;;;;;;5091383;28;20032;-53
2021/06/19 07:06:10;;;;;;;23.67;4.60;;;16.30;84.60;;;;;;5092588;28;20024;-47
2021/06/19 07:08:38;;;;;;;25.45;4.95;;;16.30;84.80;;;;;;5092659;28;20043;-50
2021/06/19 07:11:14;;;;;;;17.75;4.22;;;16.30;85.20;;;;;;5093552;28;20387;-53
2021/06/19 07:13:51;;;;;;;22.00;3.92;;;16.30;84.80;;;;;;5093855;28;20059;-53
2021/06/19 07:16:38;;;;;;;23.13;4.43;;;16.20;85.60;;;;;;5093837;28;20092;-47
2021/06/19 07:19:20;;;;;;;33.58;5.28;;;16.20;85.40;;;;;;5091825;28;20024;-50
2021/06/19 07:22:17;;;;;;;15.55;5.57;;;16.10;86.10;;;;;;5093255;28;20038;-53
2021/06/19 07:24:44;;;;;;;29.67;7.13;;;16.10;86.40;;;;;;5093322;28;20024;-51
2021/06/19 07:27:11;;;;;;;36.38;5.43;;;16.10;86.60;;;;;;5092117;28;20055;-47
2021/06/19 07:29:39;;;;;;;24.27;4.97;;;16.20;87.60;;;;;;5093086;28;20042;-48
2021/06/19 07:32:07;;;;;;;19.25;4.25;;;16.20;86.70;;;;;;5092838;28;20147;-49
2021/06/19 07:34:34;;;;;;;19.00;4.47;;;16.20;86.90;;;;;;5092425;28;20024;-49
2021/06/19 07:37:01;;;;;;;22.92;4.60;;;16.20;86.50;;;;;;5091649;28;20020;-54
2021/06/19 07:39:29;;;;;;;26.08;4.47;;;16.20;87.10;;;;;;5092019;28;20509;-48
2021/06/19 07:41:58;;;;;;;26.45;4.93;;;16.20;86.70;;;;;;5091238;28;20141;-51
2021/06/19 07:44:25;;;;;;;29.25;5.32;;;16.30;85.60;;;;;;5092356;28;20024;-54
2021/06/19 07:46:53;;;;;;;28.40;4.57;;;16.10;83.00;;;;;;5092056;28;20104;-54
2021/06/19 07:49:20;;;;;;;19.85;4.43;;;16.00;84.10;;;;;;5090432;28;20395;-56
2021/06/19 07:51:48;;;;;;;21.40;4.97;;;16.00;84.70;;;;;;5091806;28;20036;-57
2021/06/19 07:54:15;;;;;;;23.02;5.30;;;15.90;85.10;;;;;;5092335;28;20333;-54
2021/06/19 07:56:42;;;;;;;21.25;4.55;;;15.90;86.80;;;;;;5092253;28;20530;-55
2021/06/19 07:59:10;;;;;;;20.92;5.72;;;15.90;87.90;;;;;;5092233;28;20048;-52
2021/06/19 08:01:37;;;;;;;25.33;4.57;;;15.90;85.50;;;;;;5092238;28;20024;-53
2021/06/19 08:04:05;;;;;;;21.88;4.65;;;16.10;87.60;;;;;;5091697;28;20020;-58
2021/06/19 08:06:32;;;;;;;25.60;6.03;;;16.00;87.00;;;;;;5091732;28;20487;-54
2021/06/19 08:08:59;;;;;;;30.20;4.65;;;15.90;86.70;;;;;;5093634;28;20036;-52
2021/06/19 08:11:27;;;;;;;30.63;5.20;;;16.10;87.50;;;;;;5094390;28;20103;-57
2021/06/19 08:13:54;;;;;;;31.10;5.55;;;16.10;88.10;;;;;;5094277;28;20061;-56
2021/06/19 08:16:22;;;;;;;24.73;4.45;;;16.20;87.60;;;;;;5094650;28;20032;-55
2021/06/19 08:18:49;;;;;;;18.08;4.13;;;16.20;86.50;;;;;;5093288;28;20077;-49
2021/06/19 08:21:17;;;;;;;18.45;4.15;;;16.30;86.30;;;;;;5075528;28;20717;-55
2021/06/19 08:23:44;;;;;;;16.48;4.28;;;16.30;86.20;;;;;;5076224;28;20028;-53
2021/06/19 08:26:11;;;;;;;18.02;5.85;;;16.30;86.00;;;;;;5073249;28;20071;-54
2021/06/19 08:28:39;;;;;;;24.75;6.80;;;16.30;86.10;;;;;;5075636;28;20024;-55
2021/06/19 08:31:06;;;;;;;31.45;7.03;;;16.30;86.60;;;;;;5084593;28;20040;-52
2021/06/19 08:33:33;;;;;;;25.13;10.25;;;16.30;86.90;;;;;;5092371;28;20450;-54
2021/06/19 08:36:01;;;;;;;28.90;11.55;;;16.30;86.90;;;;;;5091422;28;20421;-53
2021/06/19 08:38:28;;;;;;;38.88;12.52;;;16.30;86.50;;;;;;5092691;28;20028;-49
2021/06/19 08:40:56;;;;;;;36.20;15.10;;;16.40;86.70;;;;;;5092360;28;20138;-53
2021/06/19 08:43:23;;;;;;;46.17;18.10;;;16.30;86.40;;;;;;5089827;28;20478;-53
2021/06/19 08:45:52;;;;;;;40.65;19.08;;;16.40;86.30;;;;;;5093283;28;20032;-51
2021/06/19 08:48:21;;;;;;;42.53;18.00;;;16.40;86.10;;;;;;5092389;28;20346;-53
2021/06/19 08:50:49;;;;;;;39.67;20.52;;;16.40;85.90;;;;;;5074553;28;20063;-54
2021/06/19 08:53:19;;;;;;;36.40;18.33;;;16.40;85.80;;;;;;5089626;28;20040;-48
2021/06/19 08:55:47;;;;;;;39.60;17.27;;;16.40;85.60;;;;;;5093307;28;20055;-52
2021/06/19 08:58:14;;;;;;;43.55;18.23;;;16.40;85.60;;;;;;5093232;28;20028;-54
2021/06/19 09:00:42;;;;;;;34.15;18.10;;;16.40;85.50;;;;;;5092294;28;20059;-54
2021/06/19 09:03:29;;;;;;;37.05;17.83;;;16.40;85.30;;;;;;5087705;28;20025;-54
2021/06/19 09:06:24;;;;;;;31.20;15.80;;;16.40;85.10;;;;;;5093245;28;20016;-54
2021/06/19 09:09:19;;;;;;;32.00;17.13;;;16.40;84.80;;;;;;5091060;28;20081;-51
2021/06/19 09:11:48;;;;;;;33.35;16.08;;;16.40;84.90;;;;;;5087728;28;20200;-50
2021/06/19 09:14:28;;;;;;;36.22;15.48;;;16.40;84.80;;;;;;5091646;28;20115;-47
2021/06/19 09:17:01;;;;;;;27.80;14.80;;;16.40;84.70;;;;;;5091527;28;20368;-51
2021/06/19 09:19:29;;;;;;;31.45;15.80;;;16.40;84.60;;;;;;5092152;28;20024;-52
2021/06/19 09:22:20;;;;;;;33.35;15.80;;;16.40;84.60;;;;;;5086437;28;20090;-52
2021/06/19 09:24:52;;;;;;;30.60;15.65;;;16.50;84.50;;;;;;5092465;28;20039;-50
2021/06/19 09:27:39;;;;;;;32.47;16.10;;;16.50;84.50;;;;;;5093034;28;20118;-51
2021/06/19 09:30:19;;;;;;;29.05;15.02;;;16.50;84.30;;;;;;5091854;28;20070;-48
2021/06/19 09:32:56;;;;;;;32.92;15.98;;;16.50;84.30;;;;;;5088320;28;20033;-47
2021/06/19 09:35:29;;;;;;;30.33;15.32;;;16.50;84.10;;;;;;5090459;28;20032;-47
2021/06/19 09:38:15;;;;;;;29.40;14.63;;;16.50;84.10;;;;;;5091822;28;20016;-51
2021/06/19 09:40:43;;;;;;;25.35;14.48;;;16.50;84.10;;;;;;5092115;28;20016;-47
2021/06/19 09:43:16;;;;;;;25.55;13.00;;;16.40;84.00;;;;;;5087396;28;20494;-46
2021/06/19 09:46:03;;;;;;;28.00;13.73;;;16.40;84.00;;;;;;5092951;28;20032;-47
2021/06/19 09:48:33;;;;;;;29.58;14.55;;;16.40;83.70;;;;;;5079616;28;20040;-46
2021/06/19 09:51:24;;;;;;;30.15;14.38;;;16.40;83.60;;;;;;5089975;28;20374;-46
2021/06/19 09:54:05;;;;;;;31.00;14.15;;;16.40;83.90;;;;;;5083043;28;20035;-47
2021/06/19 09:56:52;;;;;;;33.25;14.38;;;16.40;84.00;;;;;;5093144;28;20127;-50
2021/06/19 09:59:25;;;;;;;25.30;12.35;;;16.40;83.70;;;;;;5092440;28;20107;-49
2021/06/19 10:01:53;;;;;;;31.35;13.07;;;16.40;83.60;;;;;;5083597;28;20433;-47
2021/06/19 10:04:23;;;;;;;25.73;12.90;;;16.40;83.60;;;;;;5093032;28;20171;-47
2021/06/19 10:06:52;;;;;;;28.63;12.32;;;16.40;83.70;;;;;;5092746;28;20538;-46
2021/06/19 10:09:20;;;;;;;21.20;11.52;;;16.40;83.60;;;;;;5091823;28;20107;-45
2021/06/19 10:11:50;;;;;;;25.48;12.48;;;16.40;83.70;;;;;;5086297;28;20122;-46
2021/06/19 10:14:21;;;;;;;27.63;11.38;;;16.30;83.40;;;;;;5092815;28;20031;-52
2021/06/19 10:16:52;;;;;;;25.95;12.07;;;16.40;83.50;;;;;;5092688;28;20038;-56
2021/06/19 10:19:26;;;;;;;25.63;11.75;;;16.40;83.30;;;;;;5091700;28;20028;-49
2021/06/19 10:21:56;;;;;;;23.52;11.32;;;16.40;83.40;;;;;;5085664;28;20098;-50
2021/06/19 10:24:25;;;;;;;26.42;12.43;;;16.40;83.60;;;;;;5092034;28;20397;-54
2021/06/19 10:26:55;;;;;;;22.02;10.57;;;16.40;83.60;;;;;;5091855;28;20048;-55
2021/06/19 10:29:27;;;;;;;22.27;11.15;;;16.30;83.60;;;;;;5092028;28;20039;-50
2021/06/19 10:31:55;;;;;;;25.17;11.65;;;16.30;83.60;;;;;;5085445;28;20039;-55
2021/06/19 10:34:31;;;;;;;24.23;11.77;;;16.30;83.70;;;;;;5092184;28;20367;-50
2021/06/19 10:37:08;;;;;;;26.55;10.82;;;16.30;83.70;;;;;;5092107;28;20035;-56
2021/06/19 10:39:42;;;;;;;19.95;11.32;;;16.30;83.90;;;;;;5092165;28;20552;-53
2021/06/19 10:42:32;;;;;;;22.52;10.27;;;16.30;84.00;;;;;;5083879;28;20558;-55
2021/06/19 10:45:00;;;;;;;19.80;10.80;;;16.30;83.80;;;;;;5091658;28;20032;-53
2021/06/19 10:47:32;;;;;;;17.30;9.68;;;16.30;83.70;;;;;;5091625;28;20055;-56
2021/06/19 10:50:01;;;;;;;21.95;10.45;;;16.30;83.70;;;;;;5091916;28;20044;-49
2021/06/19 10:52:31;;;;;;;22.65;10.60;;;16.30;83.70;;;;;;5085158;28;20470;-48
2021/06/19 10:55:11;;;;;;;21.88;10.65;;;16.30;83.60;;;;;;5090799;28;20039;-55
2021/06/19 10:57:43;;;;;;;24.73;10.93;;;16.30;83.50;;;;;;5091754;28;20046;-51
2021/06/19 11:00:35;;;;;;;17.42;9.13;;;16.30;83.50;;;;;;5092075;28;20028;-51
2021/06/19 11:03:05;;;;;;;16.00;8.73;;;16.30;83.50;;;;;;5084156;28;20028;-48
2021/06/19 11:05:44;;;;;;;19.65;9.73;;;16.30;83.60;;;;;;5088668;28;20040;-50
2021/06/19 11:08:19;;;;;;;19.90;9.35;;;16.30;83.50;;;;;;5088989;28;20043;-55
2021/06/19 11:10:49;;;;;;;18.45;8.57;;;16.20;83.70;;;;;;5086929;28;20389;-52
2021/06/19 11:13:29;;;;;;;20.20;9.55;;;16.20;83.70;;;;;;5075071;28;20016;-55
2021/06/19 11:15:56;;;;;;;19.40;9.00;;;16.20;83.70;;;;;;5079124;28;20460;-49
2021/06/19 11:18:51;;;;;;;20.67;9.15;;;16.20;83.70;;;;;;5080258;28;20134;-55
2021/06/19 11:21:21;;;;;;;17.27;7.20;;;16.20;83.60;;;;;;5079944;28;20032;-54
2021/06/19 11:24:07;;;;;;;18.75;7.32;;;16.10;83.80;;;;;;5093099;28;20028;-50
2021/06/19 11:27:01;;;;;;;21.67;9.10;;;16.10;83.90;;;;;;5092356;28;20101;-52
2021/06/19 11:29:55;;;;;;;14.63;7.78;;;16.10;83.80;;;;;;5092509;28;20024;-53
2021/06/19 11:32:33;;;;;;;15.20;7.25;;;16.10;84.00;;;;;;5091427;28;20085;-52
2021/06/19 11:35:27;;;;;;;15.20;7.10;;;16.10;84.00;;;;;;5091113;28;20036;-51
2021/06/19 11:37:59;;;;;;;14.95;7.40;;;16.10;83.80;;;;;;5092503;28;20051;-51
2021/06/19 11:40:47;;;;;;;;;;;16.00;84.00;;;;;;5092899;28;20498;-51
2021/06/19 11:43:31;;;;;;;16.17;7.07;;;16.00;84.10;;;;;;5090296;28;19904;-50
2021/06/19 11:46:08;;;;;;;15.15;7.30;;;16.00;84.10;;;;;;5092743;28;20123;-49
2021/06/19 11:48:56;;;;;;;13.85;6.95;;;16.00;84.10;;;;;;5092935;28;20024;-51
2021/06/19 11:51:27;;;;;;;15.05;7.03;;;15.90;84.10;;;;;;5093116;28;20383;-54
2021/06/19 11:54:07;;;;;;;16.88;7.00;;;15.90;84.30;;;;;;5092939;28;20030;-53
2021/06/19 11:56:42;;;;;;;14.85;7.45;;;15.90;84.30;;;;;;5092247;28;20036;-50
2021/06/19 11:59:14;;;;;;;15.63;6.90;;;15.90;84.40;;;;;;5092297;28;20040;-53
2021/06/19 12:01:50;;;;;;;18.42;7.57;;;15.90;84.40;;;;;;5092888;28;20020;-49
2021/06/19 12:04:31;;;;;;;11.20;5.72;;;15.90;84.50;;;;;;5092273;28;20028;-49
2021/06/19 12:07:03;;;;;;;15.15;6.45;;;15.80;84.50;;;;;;5091763;28;20432;-54
2021/06/19 12:09:35;;;;;;;17.15;7.43;;;15.80;84.60;;;;;;5091894;28;20089;-56
2021/06/19 12:12:07;;;;;;;15.43;7.10;;;15.80;84.70;;;;;;5091771;28;20072;-51
2021/06/19 12:14:35;;;;;;;13.15;6.32;;;15.80;84.80;;;;;;5092054;28;20111;-49
2021/06/19 12:17:08;;;;;;;12.10;5.95;;;15.80;84.90;;;;;;5091889;28;20089;-47
2021/06/19 12:19:38;;;;;;;13.60;6.50;;;15.70;85.00;;;;;;5079242;28;20052;-51
2021/06/19 12:22:11;;;;;;;14.82;5.70;;;15.80;85.10;;;;;;5092167;28;20017;-49
2021/06/19 12:24:46;;;;;;;14.52;6.47;;;15.80;85.20;;;;;;5092373;28;20032;-50
2021/06/19 12:27:17;;;;;;;14.25;6.28;;;15.80;85.20;;;;;;5090578;28;20117;-54
2021/06/19 12:29:46;;;;;;;12.60;6.28;;;15.70;85.10;;;;;;5092412;28;20036;-53
2021/06/19 12:32:24;;;;;;;14.75;6.38;;;15.70;85.10;;;;;;5092291;28;20467;-48
2021/06/19 12:34:53;;;;;;;11.68;5.80;;;15.70;85.20;;;;;;5091728;28;20360;-48
2021/06/19 12:37:33;;;;;;;11.52;5.45;;;15.70;85.30;;;;;;5091820;28;20032;-51
2021/06/19 12:40:03;;;;;;;15.93;5.97;;;15.70;85.50;;;;;;5092305;28;20036;-50
2021/06/19 12:42:47;;;;;;;10.95;4.93;;;15.70;85.50;;;;;;5092014;28;20020;-49
2021/06/19 12:45:44;;;;;;;15.77;5.70;;;15.60;85.50;;;;;;5080719;28;20374;-51
2021/06/19 12:48:39;;;;;;;13.82;5.70;;;15.60;85.50;;;;;;5080117;28;20052;-49
2021/06/19 12:51:25;;;;;;;14.48;6.05;;;15.60;85.60;;;;;;5088625;28;20068;-51
2021/06/19 12:53:53;;;;;;;11.15;5.70;;;15.60;85.70;;;;;;5091850;28;20024;-53
2021/06/19 12:56:20;;;;;;;13.63;5.90;;;15.60;85.80;;;;;;5095236;28;20036;-51
2021/06/19 12:58:50;;;;;;;9.60;5.10;;;15.60;85.90;;;;;;5095276;28;20443;-48
2021/06/19 13:01:21;;;;;;;9.82;5.05;;;15.50;85.80;;;;;;5094919;28;20577;-53